createdAt,value
2023-04-07T00:01:10.785Z,2.58
2023-04-07T00:04:13.422Z,2.65
2023-04-07T00:07:16.022Z,2.90
2023-04-07T00:10:18.353Z,2.70
2023-04-07T00:13:20.766Z,2.80
2023-04-07T00:16:23.334Z,2.80
2023-04-07T00:19:25.713Z,2.70
2023-04-07T00:22:28.501Z,2.95
2023-04-07T00:25:30.875Z,2.27
2023-04-07T00:28:33.206Z,2.57
2023-04-07T00:31:35.781Z,2.80
2023-04-07T00:34:38.220Z,2.80
2023-04-07T00:37:40.573Z,2.90
2023-04-07T00:40:42.890Z,2.50
2023-04-07T00:43:46.086Z,2.47
2023-04-07T00:46:49.001Z,3.20
2023-04-07T00:49:51.532Z,3.10
2023-04-07T00:52:54.902Z,2.42
2023-04-07T00:55:57.225Z,2.77
2023-04-07T00:58:59.573Z,2.97
2023-04-07T01:02:16.337Z,2.92
2023-04-07T01:05:25.107Z,3.20
2023-04-07T01:08:52.396Z,2.83
2023-04-07T01:12:05.997Z,3.10
2023-04-07T01:15:11.733Z,2.73
2023-04-07T01:18:27.969Z,3.15
2023-04-07T01:21:34.264Z,2.30
2023-04-07T01:24:57.681Z,3.08
2023-04-07T01:28:39.662Z,2.70
2023-04-07T01:31:42.405Z,2.77
2023-04-07T01:34:45.875Z,2.58
2023-04-07T01:37:49.495Z,2.35
2023-04-07T01:40:52.403Z,2.65
2023-04-07T01:43:55.410Z,2.60
2023-04-07T01:47:00.282Z,2.70
2023-04-07T01:50:05.448Z,3.10
2023-04-07T01:53:08.143Z,2.92
2023-04-07T01:56:10.908Z,3.13
2023-04-07T01:59:13.385Z,3.10
2023-04-07T02:02:16.254Z,2.53
2023-04-07T02:05:20.977Z,2.97
2023-04-07T02:08:24.727Z,2.75
2023-04-07T02:11:27.744Z,2.67
2023-04-07T02:14:34.189Z,2.73
2023-04-07T02:17:43.620Z,2.60
2023-04-07T02:20:46.438Z,2.90
2023-04-07T02:23:48.799Z,2.50
2023-04-07T02:26:51.229Z,2.47
2023-04-07T02:29:54.454Z,3.37
2023-04-07T02:32:59.094Z,2.90
2023-04-07T02:36:01.648Z,2.60
2023-04-07T02:39:04.282Z,2.95
2023-04-07T02:42:06.628Z,2.92
2023-04-07T02:45:10.299Z,2.70
2023-04-07T02:48:12.899Z,2.30
2023-04-07T02:51:15.414Z,2.92
2023-04-07T02:54:17.734Z,2.30
2023-04-07T02:57:20.660Z,2.60
2023-04-07T03:00:25.549Z,2.87
2023-04-07T03:03:36.779Z,2.97
2023-04-07T03:06:52.802Z,2.65
2023-04-07T03:09:55.840Z,3.25
2023-04-07T03:12:58.343Z,2.80
2023-04-07T03:16:00.906Z,2.57
2023-04-07T03:19:09.540Z,2.40
2023-04-07T03:22:15.661Z,2.80
2023-04-07T03:25:25.635Z,3.30
2023-04-07T03:28:28.013Z,3.08
2023-04-07T03:31:30.612Z,2.80
2023-04-07T03:34:33.459Z,2.80
2023-04-07T03:37:36.062Z,2.58
2023-04-07T03:40:40.826Z,2.75
2023-04-07T03:43:43.224Z,2.85
2023-04-07T03:46:48.331Z,3.00
2023-04-07T03:49:52.073Z,3.00
2023-04-07T03:52:57.099Z,3.10
2023-04-07T03:56:02.084Z,2.60
2023-04-07T03:59:33.572Z,2.70
2023-04-07T04:02:39.697Z,2.80
2023-04-07T04:05:44.893Z,2.53
2023-04-07T04:08:52.878Z,3.35
2023-04-07T04:11:57.115Z,2.53
2023-04-07T04:15:00.045Z,2.20
2023-04-07T04:18:03.101Z,2.10
2023-04-07T04:21:08.598Z,2.27
2023-04-07T04:24:13.661Z,2.10
2023-04-07T04:27:16.501Z,2.00
2023-04-07T04:30:22.556Z,2.10
2023-04-07T04:33:32.051Z,1.90
2023-04-07T04:36:37.897Z,1.90
2023-04-07T04:39:41.411Z,2.03
2023-04-07T04:42:47.012Z,1.90
2023-04-07T04:45:51.004Z,1.80
2023-04-07T04:48:55.533Z,2.17
2023-04-07T04:51:59.600Z,2.10
2023-04-07T04:55:02.797Z,1.80
2023-04-07T04:58:05.438Z,1.73
2023-04-07T05:01:20.531Z,1.90
2023-04-07T05:04:29.903Z,1.80
2023-04-07T05:07:51.378Z,1.90
2023-04-07T05:10:55.231Z,1.90
2023-04-07T05:14:00.556Z,1.92
2023-04-07T05:17:03.000Z,2.00
2023-04-07T05:20:06.134Z,1.90
2023-04-07T05:23:12.101Z,2.03
2023-04-07T05:26:15.931Z,1.80
2023-04-07T05:29:19.237Z,1.75
2023-04-07T05:32:21.756Z,2.10
2023-04-07T05:35:24.414Z,1.80
2023-04-07T05:38:31.666Z,1.60
2023-04-07T05:41:39.120Z,1.70
2023-04-07T05:44:41.779Z,1.80
2023-04-07T05:47:44.297Z,1.90
2023-04-07T05:50:47.328Z,1.77
2023-04-07T05:53:53.250Z,2.00
2023-04-07T05:56:58.422Z,1.70
2023-04-07T06:00:04.375Z,1.90
2023-04-07T06:03:16.728Z,1.67
2023-04-07T06:06:45.487Z,1.90
2023-04-07T06:09:48.008Z,1.70
2023-04-07T06:12:50.488Z,1.80
2023-04-07T06:15:56.050Z,1.60
2023-04-07T06:18:58.422Z,1.85
2023-04-07T06:22:00.857Z,1.77
2023-04-07T06:25:03.248Z,1.90
2023-04-07T06:28:07.474Z,1.75
2023-04-07T06:31:11.098Z,1.98
2023-04-07T06:34:14.111Z,1.90
2023-04-07T06:37:17.126Z,1.90
2023-04-07T06:40:19.557Z,1.50
2023-04-07T06:43:21.942Z,1.55
2023-04-07T06:46:30.466Z,1.83
2023-04-07T06:49:33.838Z,1.80
2023-04-07T06:52:36.985Z,1.73
2023-04-07T06:55:39.355Z,1.80
2023-04-07T06:58:41.789Z,1.90
2023-04-07T07:01:45.511Z,1.65
2023-04-07T07:04:47.941Z,1.55
2023-04-07T07:07:51.641Z,1.73
2023-04-07T07:10:54.320Z,1.60
2023-04-07T07:13:56.744Z,2.58
2023-04-07T07:16:59.089Z,2.20
2023-04-07T07:20:01.495Z,1.65
2023-04-07T07:23:04.387Z,1.80
2023-04-07T07:26:06.750Z,2.07
2023-04-07T07:29:09.097Z,1.80
2023-04-07T07:32:11.432Z,1.52
2023-04-07T07:35:14.251Z,1.80
2023-04-07T07:38:16.607Z,1.87
2023-04-07T07:41:18.962Z,1.77
2023-04-07T07:44:22.749Z,1.85
2023-04-07T07:47:26.358Z,1.70
2023-04-07T07:50:28.722Z,2.33
2023-04-07T07:53:31.360Z,1.73
2023-04-07T07:56:33.696Z,1.70
2023-04-07T07:59:36.119Z,1.60
2023-04-07T08:02:39.087Z,1.60
2023-04-07T08:05:42.794Z,1.77
2023-04-07T08:08:45.197Z,1.67
2023-04-07T08:11:48.693Z,1.47
2023-04-07T08:14:51.079Z,1.60
2023-04-07T08:17:54.815Z,1.63
2023-04-07T08:20:58.523Z,1.52
2023-04-07T08:24:02.011Z,1.50
2023-04-07T08:27:04.461Z,1.80
2023-04-07T08:30:07.438Z,1.55
2023-04-07T08:33:09.845Z,1.52
2023-04-07T08:36:12.357Z,1.85
2023-04-07T08:39:14.740Z,1.80
2023-04-07T08:42:17.749Z,1.43
2023-04-07T08:45:20.526Z,2.00
2023-04-07T08:48:26.877Z,1.70
2023-04-07T08:51:31.891Z,1.85
2023-04-07T08:54:35.181Z,1.40
2023-04-07T08:57:37.554Z,1.90
2023-04-07T09:00:46.884Z,1.77
2023-04-07T09:03:50.123Z,1.90
2023-04-07T09:06:52.647Z,1.48
2023-04-07T09:09:56.272Z,1.80
2023-04-07T09:12:59.725Z,1.67
2023-04-07T09:16:03.259Z,1.70
2023-04-07T09:19:06.444Z,1.70
2023-04-07T09:22:12.531Z,1.58
2023-04-07T09:25:27.312Z,1.60
2023-04-07T09:28:42.283Z,1.77
2023-04-07T09:31:46.669Z,1.80
2023-04-07T09:34:58.781Z,1.60
2023-04-07T09:38:02.781Z,1.58
2023-04-07T09:41:16.815Z,1.43
2023-04-07T09:44:23.438Z,1.60
2023-04-07T09:47:29.941Z,1.70
2023-04-07T09:50:41.309Z,1.42
2023-04-07T09:53:51.743Z,1.80
2023-04-07T09:56:54.536Z,1.50
2023-04-07T09:59:57.256Z,1.60
2023-04-07T10:02:59.770Z,1.50
2023-04-07T10:06:02.303Z,1.52
2023-04-07T10:09:04.743Z,1.40
2023-04-07T10:12:07.124Z,1.80
2023-04-07T10:15:13.312Z,1.70
2023-04-07T10:18:18.498Z,1.60
2023-04-07T10:21:21.143Z,1.75
2023-04-07T10:24:48.888Z,1.40
2023-04-07T10:28:05.676Z,1.60
2023-04-07T10:31:08.231Z,1.53
2023-04-07T10:34:10.712Z,1.55
2023-04-07T10:37:14.342Z,1.60
2023-04-07T10:40:19.558Z,1.50
2023-04-07T10:43:38.333Z,1.60
2023-04-07T10:46:49.602Z,1.70
2023-04-07T10:50:15.033Z,1.73
2023-04-07T10:53:17.542Z,1.60
2023-04-07T10:56:19.963Z,1.75
2023-04-07T10:59:27.729Z,1.83
2023-04-07T11:02:31.250Z,1.87
2023-04-07T11:05:33.806Z,1.50
2023-04-07T11:08:49.206Z,1.45
2023-04-07T11:11:52.551Z,1.50
2023-04-07T11:14:54.916Z,1.57
2023-04-07T11:18:26.705Z,1.60
2023-04-07T11:21:29.026Z,1.55
2023-04-07T11:24:40.511Z,1.50
2023-04-07T11:27:44.828Z,1.50
2023-04-07T11:30:51.536Z,1.80
2023-04-07T11:34:02.293Z,1.97
2023-04-07T11:37:21.798Z,1.60
2023-04-07T11:40:37.022Z,1.70
2023-04-07T11:43:42.025Z,1.50
2023-04-07T11:47:03.656Z,1.37
2023-04-07T11:50:07.596Z,1.33
2023-04-07T11:53:10.175Z,1.60
2023-04-07T11:56:17.681Z,1.65
2023-04-07T11:59:24.867Z,1.52
2023-04-07T12:02:36.343Z,1.40
2023-04-07T12:05:45.308Z,1.27
2023-04-07T12:08:47.620Z,1.30
2023-04-07T12:11:50.341Z,1.40
2023-04-07T12:14:53.023Z,1.40
2023-04-07T12:17:55.694Z,1.43
2023-04-07T12:20:59.142Z,1.40
2023-04-07T12:24:02.192Z,1.50
2023-04-07T12:27:04.560Z,1.50
2023-04-07T12:30:07.726Z,1.40
2023-04-07T12:33:10.096Z,1.70
2023-04-07T12:36:12.696Z,1.50
2023-04-07T12:39:15.641Z,1.52
2023-04-07T12:42:17.981Z,1.55
2023-04-07T12:45:20.578Z,3.65
2023-04-07T12:48:23.729Z,2.17
2023-04-07T12:51:26.365Z,1.70
2023-04-07T12:54:28.796Z,2.28
2023-04-07T12:57:31.174Z,1.50
2023-04-07T13:00:33.587Z,1.60
2023-04-07T13:03:36.391Z,1.63
2023-04-07T13:06:38.919Z,1.80
2023-04-07T13:09:44.606Z,1.73
2023-04-07T13:12:47.314Z,1.40
2023-04-07T13:15:49.798Z,1.90
2023-04-07T13:18:52.150Z,1.80
2023-04-07T13:21:54.891Z,1.70
2023-04-07T13:24:57.325Z,1.90
2023-04-07T13:27:59.897Z,1.70
2023-04-07T13:31:02.377Z,1.80
2023-04-07T13:34:04.826Z,1.80
2023-04-07T13:37:07.220Z,1.60
2023-04-07T13:40:10.005Z,1.70
2023-04-07T13:43:12.818Z,1.30
2023-04-07T13:46:27.898Z,1.30
2023-04-07T13:49:30.791Z,1.67
2023-04-07T13:52:35.539Z,1.60
2023-04-07T13:55:38.791Z,1.60
2023-04-07T13:58:41.205Z,1.30
2023-04-07T14:01:43.795Z,1.40
2023-04-07T14:04:46.650Z,1.37
2023-04-07T14:07:49.643Z,1.60
2023-04-07T14:10:52.386Z,1.55
2023-04-07T14:13:56.607Z,1.50
2023-04-07T14:17:00.261Z,1.40
2023-04-07T14:20:02.620Z,1.67
2023-04-07T14:23:05.013Z,1.50
2023-04-07T14:26:10.650Z,1.45
2023-04-07T14:29:13.714Z,1.30
2023-04-07T14:32:17.091Z,1.70
2023-04-07T14:35:19.539Z,1.30
2023-04-07T14:38:25.978Z,1.50
2023-04-07T14:41:28.528Z,1.63
2023-04-07T14:44:31.739Z,1.83
2023-04-07T14:47:34.195Z,1.70
2023-04-07T14:50:36.572Z,1.47
2023-04-07T14:53:40.087Z,1.70
2023-04-07T14:56:42.529Z,1.52
2023-04-07T14:59:44.898Z,1.90
2023-04-07T15:02:47.424Z,1.90
2023-04-07T15:05:49.860Z,2.30
2023-04-07T15:08:52.288Z,2.10
2023-04-07T15:11:56.352Z,1.55
2023-04-07T15:14:58.756Z,1.75
2023-04-07T15:18:01.183Z,1.73
2023-04-07T15:21:03.596Z,2.10
2023-04-07T15:24:05.934Z,1.83
2023-04-07T15:27:08.749Z,2.38
2023-04-07T15:30:11.553Z,2.30
2023-04-07T15:33:14.206Z,2.33
2023-04-07T15:36:16.609Z,2.27
2023-04-07T15:39:19.011Z,2.43
2023-04-07T15:42:21.306Z,2.20
2023-04-07T15:45:23.693Z,1.80
2023-04-07T15:48:26.059Z,1.77
2023-04-07T15:51:29.492Z,1.60
2023-04-07T15:54:32.449Z,1.50
2023-04-07T15:57:34.789Z,1.70
2023-04-07T16:00:38.448Z,1.50
2023-04-07T16:03:40.973Z,1.60
2023-04-07T16:06:43.393Z,1.60
2023-04-07T16:09:46.032Z,1.57
2023-04-07T16:12:48.636Z,1.70
2023-04-07T16:15:55.878Z,1.50
2023-04-07T16:18:58.210Z,1.45
2023-04-07T16:22:00.573Z,1.50
2023-04-07T16:25:02.970Z,1.60
2023-04-07T16:28:05.407Z,1.80
2023-04-07T16:31:08.870Z,1.60
2023-04-07T16:34:12.384Z,1.80
2023-04-07T16:37:14.766Z,1.50
2023-04-07T16:40:17.218Z,1.50
2023-04-07T16:43:19.751Z,1.65
2023-04-07T16:46:26.015Z,1.75
2023-04-07T16:49:28.476Z,1.60
2023-04-07T16:52:31.322Z,2.20
2023-04-07T16:55:36.402Z,1.90
2023-04-07T16:58:38.747Z,2.20
2023-04-07T17:01:42.747Z,1.70
2023-04-07T17:04:45.412Z,2.13
2023-04-07T17:07:47.862Z,3.40
2023-04-07T17:10:50.239Z,2.70
2023-04-07T17:13:56.344Z,2.60
2023-04-07T17:16:59.890Z,2.45
2023-04-07T17:20:02.331Z,2.45
2023-04-07T17:23:04.716Z,2.77
2023-04-07T17:26:07.103Z,3.83
2023-04-07T17:29:09.574Z,3.20
2023-04-07T17:32:11.901Z,2.90
2023-04-07T17:35:14.258Z,2.78
2023-04-07T17:38:16.633Z,2.97
2023-04-07T17:41:19.504Z,3.27
2023-04-07T17:44:21.982Z,3.10
2023-04-07T17:47:25.175Z,2.63
2023-04-07T17:50:27.758Z,2.67
2023-04-07T17:53:31.306Z,2.57
2023-04-07T17:56:33.931Z,2.30
2023-04-07T17:59:36.343Z,2.20
2023-04-07T18:02:40.435Z,2.40
2023-04-07T18:05:46.663Z,1.98
2023-04-07T18:08:49.365Z,2.17
2023-04-07T18:11:51.708Z,2.23
2023-04-07T18:14:54.036Z,1.95
2023-04-07T18:17:56.472Z,2.10
2023-04-07T18:20:58.850Z,2.05
2023-04-07T18:24:01.518Z,1.70
2023-04-07T18:27:04.098Z,1.97
2023-04-07T18:30:07.253Z,2.10
2023-04-07T18:33:09.756Z,2.00
2023-04-07T18:36:12.899Z,2.40
2023-04-07T18:39:15.426Z,2.00
2023-04-07T18:42:18.149Z,2.63
2023-04-07T18:45:20.687Z,2.55
2023-04-07T18:48:23.103Z,2.15
2023-04-07T18:51:25.976Z,2.30
2023-04-07T18:54:28.653Z,2.80
2023-04-07T18:57:31.038Z,2.80
2023-04-07T19:00:33.557Z,2.63
2023-04-07T19:03:36.215Z,2.33
2023-04-07T19:06:38.716Z,3.65
2023-04-07T19:09:42.644Z,3.00
2023-04-07T19:12:45.173Z,2.77
2023-04-07T19:15:47.871Z,2.70
2023-04-07T19:18:51.806Z,2.63
2023-04-07T19:21:54.158Z,2.80
2023-04-07T19:24:56.547Z,2.40
2023-04-07T19:27:59.214Z,2.17
2023-04-07T19:31:01.588Z,2.58
2023-04-07T19:34:04.020Z,2.90
2023-04-07T19:37:06.477Z,2.95
2023-04-07T19:40:09.452Z,2.73
2023-04-07T19:43:14.060Z,2.73
2023-04-07T19:46:16.989Z,2.97
2023-04-07T19:49:19.772Z,3.00
2023-04-07T19:52:22.217Z,3.17
2023-04-07T19:55:24.638Z,3.43
2023-04-07T19:58:26.999Z,3.53
2023-04-07T20:01:29.461Z,2.80
2023-04-07T20:04:31.886Z,3.08
2023-04-07T20:07:34.319Z,3.88
2023-04-07T20:10:36.720Z,2.57
2023-04-07T20:13:40.019Z,3.30
2023-04-07T20:16:42.960Z,2.80
2023-04-07T20:19:45.531Z,2.70
2023-04-07T20:22:47.912Z,3.00
2023-04-07T20:25:50.550Z,2.70
2023-04-07T20:28:53.481Z,2.80
2023-04-07T20:31:56.050Z,2.97
2023-04-07T20:34:58.402Z,2.92
2023-04-07T20:38:02.697Z,3.25
2023-04-07T20:41:05.120Z,2.40
2023-04-07T20:44:07.683Z,2.80
2023-04-07T20:47:10.950Z,2.60
2023-04-07T20:50:13.349Z,3.17
2023-04-07T20:53:16.742Z,3.65
2023-04-07T20:56:19.152Z,2.73
2023-04-07T20:59:21.764Z,2.40
2023-04-07T21:02:24.240Z,3.05
2023-04-07T21:05:26.786Z,2.88
2023-04-07T21:08:29.126Z,2.63
2023-04-07T21:11:31.656Z,3.03
2023-04-07T21:14:35.001Z,2.53
2023-04-07T21:17:37.430Z,2.83
2023-04-07T21:20:40.081Z,2.63
2023-04-07T21:23:42.478Z,2.70
2023-04-07T21:26:44.841Z,2.40
2023-04-07T21:29:47.237Z,2.60
2023-04-07T21:32:49.619Z,2.80
2023-04-07T21:35:52.185Z,2.42
2023-04-07T21:38:54.547Z,2.55
2023-04-07T21:41:57.472Z,3.60
2023-04-07T21:44:59.878Z,3.63
2023-04-07T21:48:02.451Z,2.70
2023-04-07T21:51:04.873Z,3.00
2023-04-07T21:54:07.691Z,3.42
2023-04-07T21:57:10.070Z,2.67
2023-04-07T22:00:15.918Z,2.77
2023-04-07T22:03:18.597Z,2.95
2023-04-07T22:06:21.242Z,2.92
2023-04-07T22:09:23.793Z,2.65
2023-04-07T22:12:26.220Z,2.83
2023-04-07T22:15:28.600Z,3.27
2023-04-07T22:18:31.052Z,2.97
2023-04-07T22:21:33.685Z,2.92
2023-04-07T22:24:36.041Z,3.05
2023-04-07T22:27:38.514Z,2.27
2023-04-07T22:30:40.951Z,2.93
2023-04-07T22:33:43.299Z,2.80
2023-04-07T22:36:45.976Z,3.08
2023-04-07T22:39:48.444Z,2.40
2023-04-07T22:42:50.751Z,2.63
2023-04-07T22:45:53.067Z,2.17
2023-04-07T22:48:55.664Z,2.30
2023-04-07T22:51:58.004Z,2.50
2023-04-07T22:55:00.382Z,2.70
2023-04-07T22:58:02.756Z,2.30
2023-04-07T23:01:05.176Z,2.40
2023-04-07T23:04:07.574Z,2.60
2023-04-07T23:07:09.923Z,2.30
2023-04-07T23:10:12.405Z,2.88
2023-04-07T23:13:15.924Z,2.30
2023-04-07T23:16:18.366Z,2.23
2023-04-07T23:19:20.763Z,2.42
2023-04-07T23:22:23.122Z,2.22
2023-04-07T23:25:25.915Z,2.03
2023-04-07T23:28:28.449Z,2.40
2023-04-07T23:31:31.257Z,2.10
2023-04-07T23:34:33.579Z,2.20
2023-04-07T23:37:36.195Z,2.10
2023-04-07T23:40:38.541Z,2.30
2023-04-07T23:43:41.093Z,2.30
2023-04-07T23:46:43.433Z,2.60
2023-04-07T23:49:45.777Z,2.35
2023-04-07T23:52:48.110Z,2.55
2023-04-07T23:55:50.586Z,2.40
2023-04-07T23:58:52.912Z,2.20
